createdAt,value
2023-01-10T05:27:45.146Z,3.2
2023-01-10T05:41:53.226Z,3.1
2023-01-10T05:56:03.236Z,2.9
2023-01-10T06:10:14.124Z,3
2023-01-10T06:24:27.619Z,2.8
2023-01-10T06:38:34.794Z,2.9
2023-01-10T06:52:46.304Z,2.8
2023-01-10T07:06:56.527Z,3
2023-01-10T07:21:09.083Z,2.9
2023-01-10T07:35:17.816Z,3
2023-01-10T07:49:29.494Z,3.1
2023-01-10T08:03:40.685Z,3.5
2023-01-10T08:17:51.225Z,3.8
2023-01-10T08:32:01.732Z,4.9
2023-01-10T08:46:11.153Z,4.8
2023-01-10T09:00:21.071Z,4.7
2023-01-10T09:14:33.655Z,4.9
2023-01-10T09:28:48.785Z,5.2
2023-01-10T09:42:59.415Z,5.5
2023-01-10T09:57:07.467Z,5.7
2023-01-10T10:11:18.894Z,6
2023-01-10T10:25:30.725Z,6.2
2023-01-10T10:39:43.138Z,6.6
2023-01-10T10:53:54.059Z,7
2023-01-10T11:08:02.109Z,7.1
2023-01-10T11:22:12.576Z,7.1
2023-01-10T11:36:25.301Z,7.2
2023-01-10T11:50:34.782Z,7.5
2023-01-10T12:04:46.601Z,7.8
2023-01-10T12:18:52.533Z,7.9
2023-01-10T12:33:04.237Z,7.6
2023-01-10T12:47:14.910Z,7.4
2023-01-10T13:01:26.563Z,7.3
2023-01-10T13:15:33.423Z,7
2023-01-10T13:29:43.337Z,6.9
2023-01-10T13:43:51.236Z,6.7
2023-01-10T13:57:58.867Z,6.5
2023-01-10T14:12:06.342Z,6.3
2023-01-10T14:26:15.543Z,6.1
2023-01-10T14:40:31.945Z,6.1
2023-01-10T14:54:42.190Z,6.1
2023-01-10T15:08:51.620Z,6.2
2023-01-10T15:23:02.067Z,6.2
2023-01-10T15:37:12.547Z,6.2
2023-01-10T15:51:23.308Z,6.3
2023-01-10T16:05:31.800Z,6.4
2023-01-10T16:19:41.458Z,6.4
2023-01-10T16:33:51.379Z,6.5
2023-01-10T16:48:02.531Z,6.6
2023-01-10T17:02:14.263Z,6.8
2023-01-10T17:16:23.537Z,7
2023-01-10T17:30:35.088Z,7.1
2023-01-10T17:44:48.185Z,7.3
2023-01-10T17:58:56.716Z,7.4
2023-01-10T18:13:09.564Z,7.4
2023-01-10T18:27:20.496Z,7.5
2023-01-10T18:41:34.359Z,7.7
2023-01-10T18:55:43.205Z,7.9
2023-01-10T19:09:54.642Z,8.2
2023-01-10T19:24:03.394Z,8.4
2023-01-10T19:38:16.324Z,8.6
2023-01-10T19:52:27.808Z,8.7
2023-01-10T20:06:38.036Z,8.7
2023-01-10T20:20:47.579Z,8.8
2023-01-10T20:34:54.801Z,8.8
2023-01-10T20:49:02.779Z,9
2023-01-10T21:03:06.684Z,9.3
2023-01-10T21:17:14.285Z,9.6
2023-01-10T21:31:23.870Z,10
2023-01-10T21:45:33.436Z,10.1
2023-01-10T21:59:40.697Z,10.2
2023-01-10T22:13:46.105Z,10.5
2023-01-10T22:27:56.530Z,10.6
2023-01-10T22:42:04.915Z,10.6
2023-01-10T22:56:11.649Z,10.6
2023-01-10T23:10:29.577Z,10.7
2023-01-10T23:24:30.981Z,10.8
2023-01-10T23:38:39.199Z,10.9
